Issaquah, Washington
Current Conditions -  °F | °C
As of 5:53 PM on Saturday 22 Nov 2014 (Local Time) from KRNT Reporting Station
Scattered Clouds Scattered Clouds  
Wind Chill: 45°   Ceiling: Unl
Heat Index: 45°   Visibility: 10mi
Dew Point: 43°   Wind: 3mph
Humidity: 93%   Direction: 90°E
Pressure: 30.02"   Gusts: NA
Location:  47.53°N, 122.03°W
Report Text: KRNT 230153Z 09003KT 10SM SCT028 07/06 A3002 RMK AO2 SLP170 T00720061
Loading
Personal Weather Stations






























Interactive Weather Map New forecast layout! Learn more

10-Day Weather Forecast

Advertisements
Track Severe Weather on mobile